createdAt,value
2018-10-03T00:01:38.703Z,82.89
2018-10-03T00:04:43.290Z,82.70
2018-10-03T00:07:48.204Z,82.51
2018-10-03T00:10:52.802Z,82.50
2018-10-03T00:13:57.496Z,83.08
2018-10-03T00:17:02.454Z,82.27
2018-10-03T00:20:07.436Z,82.93
2018-10-03T00:23:12.166Z,82.93
2018-10-03T00:26:16.773Z,82.68
2018-10-03T00:29:21.921Z,82.37
2018-10-03T00:32:26.610Z,83.57
2018-10-03T00:35:31.300Z,83.50
2018-10-03T00:38:35.999Z,83.48
2018-10-03T00:41:41.613Z,83.16
2018-10-03T00:44:46.449Z,83.01
2018-10-03T00:47:51.100Z,83.14
2018-10-03T00:50:55.836Z,83.20
2018-10-03T00:54:00.507Z,83.24
2018-10-03T00:57:05.241Z,83.00
2018-10-03T01:00:10.148Z,83.56
2018-10-03T01:03:15.173Z,83.64
2018-10-03T01:06:20.016Z,84.04
2018-10-03T01:09:24.770Z,83.60
2018-10-03T01:12:29.503Z,83.48
2018-10-03T01:15:34.179Z,84.27
2018-10-03T01:18:39.054Z,83.54
2018-10-03T01:21:43.737Z,83.52
2018-10-03T01:24:48.382Z,84.00
2018-10-03T01:27:53.160Z,83.57
2018-10-03T01:30:57.852Z,83.33
2018-10-03T01:34:02.520Z,83.52
2018-10-03T01:37:07.954Z,82.74
2018-10-03T01:40:12.657Z,83.68
2018-10-03T01:43:17.498Z,83.39
2018-10-03T01:46:22.212Z,83.62
2018-10-03T01:49:26.995Z,83.18
2018-10-03T01:52:31.835Z,82.99
2018-10-03T01:55:36.596Z,82.96
2018-10-03T01:58:41.447Z,82.76
2018-10-03T02:01:46.188Z,82.36
2018-10-03T02:04:50.909Z,83.13
2018-10-03T02:07:55.642Z,82.67
2018-10-03T02:11:00.474Z,82.56
2018-10-03T02:14:05.085Z,83.03
2018-10-03T02:17:09.709Z,84.20
2018-10-03T02:20:14.397Z,82.73
2018-10-03T02:23:19.151Z,83.88
2018-10-03T02:26:23.851Z,82.81
2018-10-03T02:29:28.508Z,83.59
2018-10-03T02:32:33.234Z,83.21
2018-10-03T02:35:37.957Z,83.18
2018-10-03T02:38:42.591Z,83.47
2018-10-03T02:41:47.210Z,83.01
2018-10-03T02:44:51.887Z,83.44
2018-10-03T02:47:56.678Z,83.85
2018-10-03T02:51:01.384Z,82.92
2018-10-03T02:54:06.048Z,82.03
2018-10-03T02:57:10.713Z,82.76
2018-10-03T03:00:15.572Z,82.64
2018-10-03T03:03:20.077Z,82.37
2018-10-03T03:06:24.795Z,81.50
2018-10-03T03:09:29.477Z,80.97
2018-10-03T03:12:34.096Z,80.43
2018-10-03T03:15:38.882Z,80.39
2018-10-03T03:18:43.508Z,80.40
2018-10-03T03:21:48.590Z,80.60
2018-10-03T03:24:53.180Z,80.62
2018-10-03T03:27:58.016Z,80.49
2018-10-03T03:31:02.688Z,80.54
2018-10-03T03:34:07.384Z,81.17
2018-10-03T03:37:12.939Z,80.67
2018-10-03T03:40:17.508Z,80.55
2018-10-03T03:43:22.344Z,80.40
2018-10-03T03:46:26.940Z,81.39
2018-10-03T03:49:31.573Z,81.92
2018-10-03T03:52:36.176Z,82.48
2018-10-03T03:55:40.794Z,83.19
2018-10-03T03:58:45.564Z,83.03
2018-10-03T04:01:50.129Z,82.70
2018-10-03T04:04:54.719Z,82.76
2018-10-03T04:07:59.550Z,83.50
2018-10-03T04:11:04.243Z,81.88
2018-10-03T04:14:09.258Z,82.45
2018-10-03T04:17:13.845Z,81.60
2018-10-03T04:20:18.574Z,81.41
2018-10-03T04:23:23.285Z,81.36
2018-10-03T04:26:27.920Z,79.88
2018-10-03T04:29:32.788Z,80.00
2018-10-03T04:32:37.424Z,81.61
2018-10-03T04:35:42.203Z,81.70
2018-10-03T04:38:46.996Z,82.58
2018-10-03T04:41:51.705Z,83.49
2018-10-03T04:44:56.408Z,83.72
2018-10-03T04:48:01.015Z,83.11
2018-10-03T04:51:05.933Z,83.05
2018-10-03T04:54:10.507Z,84.47
2018-10-03T04:57:15.208Z,83.85
2018-10-03T05:00:19.986Z,83.04
2018-10-03T05:03:24.585Z,83.42
2018-10-03T05:06:29.245Z,84.32
2018-10-03T05:09:33.921Z,85.18
2018-10-03T05:12:38.574Z,84.45
2018-10-03T05:15:43.333Z,84.72
2018-10-03T05:18:47.937Z,86.54
2018-10-03T05:21:52.724Z,85.93
2018-10-03T05:24:57.516Z,85.93
2018-10-03T05:28:02.191Z,85.04
2018-10-03T05:31:06.981Z,85.79
2018-10-03T05:34:12.283Z,85.49
2018-10-03T05:37:17.241Z,85.65
2018-10-03T05:40:21.990Z,85.44
2018-10-03T05:43:26.865Z,84.77
2018-10-03T05:46:31.561Z,85.00
2018-10-03T05:49:36.276Z,85.20
2018-10-03T05:52:41.064Z,85.69
2018-10-03T05:55:45.930Z,85.50
2018-10-03T05:58:50.770Z,85.35
2018-10-03T06:01:55.600Z,83.89
2018-10-03T06:05:00.419Z,84.39
2018-10-03T06:08:06.482Z,85.39
2018-10-03T06:11:11.254Z,84.58
2018-10-03T06:14:16.216Z,84.30
2018-10-03T06:17:21.154Z,84.29
2018-10-03T06:20:25.899Z,84.18
2018-10-03T06:23:30.682Z,84.45
2018-10-03T06:26:35.919Z,83.96
2018-10-03T06:29:40.627Z,83.36
2018-10-03T06:32:45.391Z,82.69
2018-10-03T06:35:50.117Z,81.78
2018-10-03T06:38:55.132Z,81.56
2018-10-03T06:41:59.818Z,82.36
2018-10-03T06:45:04.960Z,82.28
2018-10-03T06:48:09.686Z,81.67
2018-10-03T06:51:14.497Z,82.04
2018-10-03T06:54:19.225Z,82.30
2018-10-03T06:57:24.026Z,81.35
2018-10-03T07:00:28.982Z,81.18
2018-10-03T07:03:33.788Z,80.56
2018-10-03T07:06:38.476Z,81.31
2018-10-03T07:09:43.317Z,81.08
2018-10-03T07:12:48.491Z,81.55
2018-10-03T07:15:53.148Z,81.21
2018-10-03T07:18:57.707Z,81.53
2018-10-03T07:22:02.514Z,79.66
2018-10-03T07:25:07.273Z,80.81
2018-10-03T07:28:11.993Z,79.50
2018-10-03T07:31:16.649Z,80.14
2018-10-03T07:34:21.276Z,80.36
2018-10-03T07:37:25.966Z,81.85
2018-10-03T07:40:30.671Z,80.06
2018-10-03T07:43:35.589Z,79.12
2018-10-03T07:46:40.458Z,80.09
2018-10-03T07:49:45.116Z,80.48
2018-10-03T07:52:49.791Z,78.68
2018-10-03T07:55:54.547Z,78.14
2018-10-03T07:58:59.607Z,77.99
2018-10-03T08:02:04.358Z,76.04
2018-10-03T08:05:09.062Z,77.92
2018-10-03T08:08:13.824Z,77.71
2018-10-03T08:11:18.565Z,78.16
2018-10-03T08:14:23.308Z,78.60
2018-10-03T08:17:28.085Z,77.96
2018-10-03T08:20:32.846Z,77.30
2018-10-03T08:23:37.648Z,78.41
2018-10-03T08:26:43.582Z,78.68
2018-10-03T08:29:48.306Z,76.50
2018-10-03T08:32:53.234Z,75.32
2018-10-03T08:35:58.217Z,74.27
2018-10-03T08:39:02.874Z,72.98
2018-10-03T08:42:07.652Z,74.65
2018-10-03T08:45:12.393Z,72.96
2018-10-03T08:48:17.125Z,72.64
2018-10-03T08:51:21.708Z,73.09
2018-10-03T08:54:26.276Z,72.35
2018-10-03T08:57:31.014Z,72.65
2018-10-03T09:00:35.840Z,70.89
2018-10-03T09:03:40.712Z,69.13
2018-10-03T09:06:45.546Z,68.80
2018-10-03T09:09:50.278Z,68.00
2018-10-03T09:12:55.184Z,66.96
2018-10-03T09:15:59.920Z,64.82
2018-10-03T09:19:04.893Z,63.62
2018-10-03T09:22:09.875Z,63.00
2018-10-03T09:25:15.009Z,66.68
2018-10-03T09:28:20.024Z,65.04
2018-10-03T09:31:24.925Z,64.17
2018-10-03T09:34:29.902Z,64.61
2018-10-03T09:37:34.548Z,63.90
2018-10-03T09:40:39.496Z,62.26
2018-10-03T09:43:44.241Z,62.02
2018-10-03T09:46:48.997Z,59.91
2018-10-03T09:49:54.306Z,58.98
2018-10-03T09:52:58.904Z,59.82
2018-10-03T09:56:03.732Z,59.11
2018-10-03T09:59:09.052Z,58.12
2018-10-03T10:02:13.779Z,59.49
2018-10-03T10:05:19.665Z,59.78
2018-10-03T10:08:25.555Z,60.88
2018-10-03T10:11:30.291Z,60.08
2018-10-03T10:14:34.994Z,60.62
2018-10-03T10:17:39.928Z,59.81
2018-10-03T10:20:44.568Z,59.33
2018-10-03T10:23:49.151Z,57.02
2018-10-03T10:26:53.942Z,59.32
2018-10-03T10:29:58.656Z,59.40
2018-10-03T10:33:03.346Z,59.64
2018-10-03T10:36:08.284Z,58.91
2018-10-03T10:39:13.090Z,57.68
2018-10-03T10:42:17.884Z,58.60
2018-10-03T10:45:22.676Z,58.48
2018-10-03T10:48:28.150Z,57.49
2018-10-03T10:51:33.109Z,58.70
2018-10-03T10:54:37.847Z,58.96
2018-10-03T10:57:42.679Z,58.72
2018-10-03T11:00:47.305Z,54.57
2018-10-03T11:03:52.477Z,54.09
2018-10-03T11:06:57.125Z,53.47
2018-10-03T11:10:01.780Z,51.05
2018-10-03T11:13:06.824Z,51.47
2018-10-03T11:16:11.440Z,49.79
2018-10-03T11:19:20.111Z,48.32
2018-10-03T11:22:24.805Z,48.09
2018-10-03T11:25:29.677Z,47.07
2018-10-03T11:28:34.610Z,47.77
2018-10-03T11:31:39.310Z,46.84
2018-10-03T11:34:44.085Z,45.03
2018-10-03T11:37:48.747Z,46.55
2018-10-03T11:40:53.505Z,47.53
2018-10-03T11:43:58.347Z,47.81
2018-10-03T11:47:03.170Z,46.07
2018-10-03T11:50:07.966Z,45.89
2018-10-03T11:53:12.769Z,46.12
2018-10-03T11:56:17.429Z,48.27
2018-10-03T11:59:22.180Z,47.21
2018-10-03T12:02:26.811Z,48.73
2018-10-03T12:05:31.465Z,48.23
2018-10-03T12:08:36.157Z,48.74
2018-10-03T12:11:40.770Z,49.59
2018-10-03T12:14:45.496Z,49.53
2018-10-03T12:17:50.087Z,48.42
2018-10-03T12:20:54.772Z,46.91
2018-10-03T12:23:59.564Z,46.94
2018-10-03T12:27:04.798Z,45.92
2018-10-03T12:30:09.549Z,47.19
2018-10-03T12:33:14.272Z,46.22
2018-10-03T12:36:18.892Z,45.67
2018-10-03T12:39:23.848Z,45.15
2018-10-03T12:42:28.578Z,45.78
2018-10-03T12:45:33.247Z,45.81
2018-10-03T12:48:38.031Z,46.17
2018-10-03T12:51:43.102Z,47.30
2018-10-03T12:54:48.074Z,46.08
2018-10-03T12:57:52.953Z,46.62
2018-10-03T13:00:57.748Z,47.46
2018-10-03T13:04:02.330Z,47.83
2018-10-03T13:07:07.249Z,47.65
2018-10-03T13:10:11.945Z,49.31
2018-10-03T13:13:16.702Z,48.22
2018-10-03T13:16:21.368Z,49.08
2018-10-03T13:19:26.021Z,49.90
2018-10-03T13:22:30.649Z,51.22
2018-10-03T13:25:35.437Z,47.63
2018-10-03T13:28:40.065Z,48.57
2018-10-03T13:31:44.755Z,47.61
2018-10-03T13:34:49.407Z,45.56
2018-10-03T13:37:54.231Z,45.99
2018-10-03T13:40:58.881Z,44.67
2018-10-03T13:44:03.476Z,44.80
2018-10-03T13:47:08.035Z,45.54
2018-10-03T13:50:12.820Z,46.42
2018-10-03T13:53:17.507Z,46.55
2018-10-03T13:56:22.180Z,46.54
2018-10-03T13:59:26.783Z,47.23
2018-10-03T14:02:31.409Z,48.42
2018-10-03T14:05:36.069Z,47.81
2018-10-03T14:08:42.134Z,48.58
2018-10-03T14:11:46.877Z,47.53
2018-10-03T14:14:51.621Z,46.59
2018-10-03T14:17:56.644Z,44.96
2018-10-03T14:21:01.430Z,45.26
2018-10-03T14:24:06.059Z,45.79
2018-10-03T14:27:10.743Z,44.54
2018-10-03T14:30:15.412Z,43.66
2018-10-03T14:33:20.062Z,44.17
2018-10-03T14:36:24.889Z,44.71
2018-10-03T14:39:29.559Z,45.13
2018-10-03T14:42:34.222Z,43.74
2018-10-03T14:45:38.915Z,45.69
2018-10-03T14:48:43.609Z,44.39
2018-10-03T14:51:48.201Z,45.51
2018-10-03T14:54:53.053Z,46.20
2018-10-03T14:57:57.793Z,46.98
2018-10-03T15:01:02.672Z,47.26
2018-10-03T15:04:07.482Z,47.54
2018-10-03T15:07:12.286Z,47.91
2018-10-03T15:10:17.031Z,47.14
2018-10-03T15:13:21.720Z,48.33
2018-10-03T15:16:26.467Z,48.34
2018-10-03T15:19:31.105Z,48.14
2018-10-03T15:22:35.867Z,48.03
2018-10-03T15:25:40.619Z,48.56
2018-10-03T15:28:45.346Z,49.81
2018-10-03T15:31:49.980Z,50.23
2018-10-03T15:34:54.622Z,49.65
2018-10-03T15:37:59.294Z,50.28
2018-10-03T15:41:04.269Z,50.31
2018-10-03T15:44:08.872Z,51.43
2018-10-03T15:47:13.544Z,50.90
2018-10-03T15:50:18.152Z,51.94
2018-10-03T15:53:22.834Z,51.17
2018-10-03T15:56:27.433Z,51.29
2018-10-03T15:59:32.118Z,51.56
2018-10-03T16:02:36.788Z,52.62
2018-10-03T16:05:41.375Z,54.19
2018-10-03T16:08:46.068Z,52.82
2018-10-03T16:11:50.680Z,53.77
2018-10-03T16:14:55.313Z,53.54
2018-10-03T16:18:00.131Z,55.42
2018-10-03T16:21:04.865Z,55.22
2018-10-03T16:24:09.635Z,54.10
2018-10-03T16:27:14.819Z,57.84
2018-10-03T16:30:19.411Z,59.27
2018-10-03T16:33:24.087Z,59.62
2018-10-03T16:36:28.772Z,60.68
2018-10-03T16:39:33.420Z,62.63
2018-10-03T16:42:38.122Z,60.97
2018-10-03T16:45:42.763Z,63.32
2018-10-03T16:48:48.318Z,66.79
2018-10-03T16:51:52.951Z,68.10
2018-10-03T16:54:57.582Z,67.78
2018-10-03T16:58:02.261Z,68.47
2018-10-03T17:01:06.922Z,68.69
2018-10-03T17:04:11.609Z,69.53
2018-10-03T17:07:16.362Z,70.16
2018-10-03T17:10:21.108Z,70.23
2018-10-03T17:13:26.452Z,69.98
2018-10-03T17:16:31.110Z,68.53
2018-10-03T17:19:35.865Z,69.37
2018-10-03T17:22:40.974Z,70.79
2018-10-03T17:25:45.630Z,71.16
2018-10-03T17:28:50.309Z,71.93
2018-10-03T17:31:55.155Z,72.92
2018-10-03T17:34:59.857Z,72.30
2018-10-03T17:38:04.521Z,73.40
2018-10-03T17:41:09.229Z,73.95
2018-10-03T17:44:14.894Z,74.56
2018-10-03T17:47:19.540Z,75.33
2018-10-03T17:50:24.669Z,75.79
2018-10-03T17:53:29.395Z,77.11
2018-10-03T17:56:34.283Z,77.88
2018-10-03T17:59:39.180Z,77.96
2018-10-03T18:02:43.978Z,77.19
2018-10-03T18:05:48.597Z,76.69
2018-10-03T18:08:53.750Z,75.72
2018-10-03T18:11:58.587Z,75.99
2018-10-03T18:15:03.385Z,76.56
2018-10-03T18:18:08.043Z,76.03
2018-10-03T18:21:13.352Z,76.46
2018-10-03T18:24:18.054Z,77.11
2018-10-03T18:27:22.805Z,77.73
2018-10-03T18:30:27.414Z,78.08
2018-10-03T18:33:32.063Z,79.41
2018-10-03T18:36:36.802Z,80.12
2018-10-03T18:39:41.686Z,80.51
2018-10-03T18:42:46.579Z,80.65
2018-10-03T18:45:51.469Z,79.38
2018-10-03T18:48:56.209Z,80.53
2018-10-03T18:52:17.405Z,80.04
2018-10-03T18:55:23.605Z,80.03
2018-10-03T18:58:28.308Z,81.48
2018-10-03T19:01:33.002Z,82.01
2018-10-03T19:04:37.884Z,83.01
2018-10-03T19:07:42.781Z,82.77
2018-10-03T19:10:47.603Z,83.08
2018-10-03T19:13:52.174Z,83.56
2018-10-03T19:16:56.877Z,83.96
2018-10-03T19:20:01.600Z,83.55
2018-10-03T19:23:06.189Z,83.98
2018-10-03T19:26:10.913Z,84.53
2018-10-03T19:29:15.616Z,84.67
2018-10-03T19:32:20.317Z,85.34
2018-10-03T19:35:25.218Z,85.17
2018-10-03T19:38:29.963Z,84.66
2018-10-03T19:41:34.892Z,83.84
2018-10-03T19:44:40.248Z,84.43
2018-10-03T19:47:45.005Z,84.29
2018-10-03T19:50:49.772Z,84.75
2018-10-03T19:53:54.482Z,85.12
2018-10-03T19:56:59.329Z,85.05
2018-10-03T20:00:04.012Z,85.41
2018-10-03T20:03:08.653Z,85.72
2018-10-03T20:06:13.361Z,85.76
2018-10-03T20:09:18.051Z,86.28
2018-10-03T20:12:22.713Z,86.77
2018-10-03T20:15:27.444Z,87.70
2018-10-03T20:18:32.173Z,87.79
2018-10-03T20:21:37.647Z,88.15
2018-10-03T20:24:42.734Z,88.50
2018-10-03T20:27:47.513Z,88.40
2018-10-03T20:30:52.165Z,88.55
2018-10-03T20:33:57.043Z,88.83
2018-10-03T20:37:01.925Z,88.69
2018-10-03T20:40:06.669Z,88.84
2018-10-03T20:43:11.574Z,88.85
2018-10-03T20:46:16.320Z,88.25
2018-10-03T20:49:21.076Z,88.67
2018-10-03T20:52:25.768Z,89.38
2018-10-03T20:55:30.411Z,90.07
2018-10-03T20:58:35.469Z,90.24
2018-10-03T21:01:40.853Z,90.65
2018-10-03T21:04:45.733Z,91.06
2018-10-03T21:07:51.039Z,90.67
2018-10-03T21:10:55.986Z,90.73
2018-10-03T21:14:00.741Z,90.85
2018-10-03T21:17:05.481Z,90.78
2018-10-03T21:20:10.225Z,90.40
2018-10-03T21:23:14.850Z,91.20
2018-10-03T21:26:20.720Z,91.27
2018-10-03T21:29:25.405Z,91.20
2018-10-03T21:32:31.437Z,91.12
2018-10-03T21:35:36.171Z,91.45
2018-10-03T21:38:41.028Z,91.00
2018-10-03T21:41:45.811Z,91.01
2018-10-03T21:44:50.552Z,91.10
2018-10-03T21:47:55.374Z,91.07
2018-10-03T21:51:00.041Z,91.47
2018-10-03T21:54:04.921Z,91.21
2018-10-03T21:57:10.145Z,92.05
2018-10-03T22:00:14.873Z,92.10
2018-10-03T22:03:19.681Z,91.56
2018-10-03T22:06:24.445Z,91.40
2018-10-03T22:09:29.241Z,92.07
2018-10-03T22:12:33.984Z,92.12
2018-10-03T22:15:38.688Z,92.53
2018-10-03T22:18:43.355Z,92.39
2018-10-03T22:21:48.063Z,92.72
2018-10-03T22:24:52.760Z,92.99
2018-10-03T22:27:57.389Z,93.37
2018-10-03T22:31:02.013Z,93.38
2018-10-03T22:34:06.964Z,93.53
2018-10-03T22:37:12.086Z,93.93
2018-10-03T22:40:16.938Z,93.86
2018-10-03T22:43:21.876Z,93.26
2018-10-03T22:46:26.870Z,93.30
2018-10-03T22:49:37.543Z,93.39
2018-10-03T22:52:42.171Z,93.52
2018-10-03T22:55:46.742Z,93.67
2018-10-03T22:58:51.380Z,94.15
2018-10-03T23:01:56.111Z,93.85
2018-10-03T23:05:00.871Z,93.84
2018-10-03T23:08:05.697Z,93.83
2018-10-03T23:11:10.366Z,93.48
2018-10-03T23:14:15.065Z,93.44
2018-10-03T23:17:19.767Z,93.22
2018-10-03T23:20:24.433Z,93.40
2018-10-03T23:23:29.263Z,93.36
2018-10-03T23:26:33.937Z,92.86
2018-10-03T23:29:38.587Z,92.98
2018-10-03T23:32:43.192Z,93.54
2018-10-03T23:35:47.825Z,93.70
2018-10-03T23:38:52.494Z,93.99
2018-10-03T23:41:57.112Z,93.97
2018-10-03T23:45:01.689Z,93.77
2018-10-03T23:48:06.432Z,93.53
2018-10-03T23:51:10.968Z,93.83
2018-10-03T23:54:15.507Z,93.80
2018-10-03T23:57:20.168Z,94.18
